Open Full Screen Window  High Contrast Mode
Wind Gusting 00 knots
16
February 11, 2016 12:00 PM EST
Present Weather: Light Snow
Weather Information
Wind Direction
  270 °
Wind Speed
  16 kt (18 mph)
Wind Gust
  00 kt (0 mph)
Altimeter
30.14 in
Visibility
4 SM
Temperature
-09° C
16° F
Dewpoint
-15° C
F
Humidity
62%
1hr Rain Fall
00.00 in.
24hr Rain Fall
00.00 in.
Sky Condition
Overcast @ 3,700 ft
Broken @ 2,500 ft
Scattered @ 1,200 ft
MVFR

METAR KPOV 111700Z AUTO 27016KT 4SM -SN SCT012 BKN025 OVC037 M09/M15 A3014 RMK AO2 T10871150

*Background is not an actual portrayal of the airport.